createdAt,value
2018-12-30T00:01:41.250Z,4.97
2018-12-30T00:04:08.918Z,4.50
2018-12-30T00:06:37.396Z,6.57
2018-12-30T00:09:05.891Z,5.20
2018-12-30T00:11:33.974Z,7.00
2018-12-30T00:14:01.759Z,7.63
2018-12-30T00:16:29.428Z,5.03
2018-12-30T00:18:57.195Z,5.43
2018-12-30T00:21:24.907Z,5.23
2018-12-30T00:23:52.674Z,5.30
2018-12-30T00:26:20.413Z,6.77
2018-12-30T00:28:48.183Z,6.07
2018-12-30T00:31:16.089Z,7.03
2018-12-30T00:33:43.914Z,6.93
2018-12-30T00:36:11.649Z,4.10
2018-12-30T00:38:39.344Z,5.37
2018-12-30T00:41:07.435Z,6.47
2018-12-30T00:43:35.214Z,5.70
2018-12-30T00:46:04.067Z,4.40
2018-12-30T00:48:32.133Z,5.00
2018-12-30T00:51:00.175Z,5.87
2018-12-30T00:53:28.093Z,5.47
2018-12-30T00:55:55.839Z,5.27
2018-12-30T00:58:23.812Z,3.23
2018-12-30T01:00:51.975Z,3.93
2018-12-30T01:03:20.041Z,5.27
2018-12-30T01:05:47.814Z,4.27
2018-12-30T01:08:15.895Z,7.87
2018-12-30T01:10:43.816Z,5.23
2018-12-30T01:13:11.542Z,3.57
2018-12-30T01:15:40.790Z,4.30
2018-12-30T01:18:08.630Z,2.60
2018-12-30T01:20:36.390Z,2.40
2018-12-30T01:23:04.080Z,2.87
2018-12-30T01:25:31.778Z,1.07
2018-12-30T01:27:59.630Z,2.10
2018-12-30T01:30:28.012Z,2.37
2018-12-30T01:32:55.865Z,1.43
2018-12-30T01:35:23.500Z,1.07
2018-12-30T01:37:51.514Z,2.00
2018-12-30T01:40:19.296Z,2.23
2018-12-30T01:42:47.015Z,1.33
2018-12-30T01:45:15.057Z,1.83
2018-12-30T01:47:42.772Z,0.93
2018-12-30T01:50:10.423Z,1.20
2018-12-30T01:52:39.810Z,1.17
2018-12-30T01:55:07.624Z,1.30
2018-12-30T01:57:35.645Z,2.07
2018-12-30T02:00:04.000Z,1.43
2018-12-30T02:02:32.004Z,1.50
2018-12-30T02:05:00.268Z,1.90
2018-12-30T02:07:27.952Z,1.17
2018-12-30T02:09:56.043Z,1.53
2018-12-30T02:12:24.116Z,1.57
2018-12-30T02:14:52.083Z,1.37
2018-12-30T02:17:19.790Z,1.60
2018-12-30T02:19:48.763Z,1.73
2018-12-30T02:22:17.555Z,1.47
2018-12-30T02:24:46.163Z,1.40
2018-12-30T02:27:14.258Z,2.10
2018-12-30T02:29:41.940Z,2.20
2018-12-30T02:32:09.614Z,3.03
2018-12-30T02:34:37.421Z,2.43
2018-12-30T02:37:05.231Z,2.73
2018-12-30T02:39:32.928Z,3.30
2018-12-30T02:42:00.991Z,2.97
2018-12-30T02:44:29.501Z,2.97
2018-12-30T02:46:58.199Z,2.10
2018-12-30T02:49:26.048Z,5.50
2018-12-30T02:51:53.850Z,5.00
2018-12-30T02:54:21.599Z,2.90
2018-12-30T02:56:49.383Z,4.00
2018-12-30T02:59:17.204Z,4.53
2018-12-30T03:01:44.926Z,4.67
2018-12-30T03:04:13.334Z,6.03
2018-12-30T03:06:41.011Z,7.90
2018-12-30T03:09:08.971Z,11.47
2018-12-30T03:11:37.031Z,7.40
2018-12-30T03:14:04.728Z,8.17
2018-12-30T03:16:32.881Z,10.30
2018-12-30T03:19:01.211Z,11.80
2018-12-30T03:21:28.917Z,7.73
2018-12-30T03:23:57.096Z,10.43
2018-12-30T03:26:24.965Z,7.53
2018-12-30T03:28:52.727Z,8.40
2018-12-30T03:31:20.439Z,7.47
2018-12-30T03:33:48.336Z,6.97
2018-12-30T03:36:16.390Z,8.53
2018-12-30T03:38:44.302Z,7.20
2018-12-30T03:41:12.225Z,9.87
2018-12-30T03:43:39.911Z,10.53
2018-12-30T03:46:07.669Z,11.43
2018-12-30T03:48:35.354Z,12.17
2018-12-30T03:51:03.432Z,13.23
2018-12-30T03:53:31.226Z,11.30
2018-12-30T03:55:58.951Z,13.57
2018-12-30T03:58:31.492Z,12.03
2018-12-30T04:00:59.188Z,11.17
2018-12-30T04:03:26.881Z,10.13
2018-12-30T04:05:54.726Z,9.77
2018-12-30T04:08:22.413Z,10.40
2018-12-30T04:10:50.422Z,9.70
2018-12-30T04:13:18.164Z,9.30
2018-12-30T04:15:46.179Z,9.37
2018-12-30T04:18:14.244Z,9.97
2018-12-30T04:20:41.926Z,10.00
2018-12-30T04:23:09.737Z,8.70
2018-12-30T04:25:37.421Z,9.20
2018-12-30T04:28:05.595Z,9.70
2018-12-30T04:30:33.264Z,11.53
2018-12-30T04:33:01.360Z,10.63
2018-12-30T04:35:29.718Z,11.00
2018-12-30T04:37:57.671Z,12.27
2018-12-30T04:40:25.356Z,15.00
2018-12-30T04:42:53.144Z,13.13
2018-12-30T04:45:21.067Z,14.77
2018-12-30T04:47:48.932Z,17.63
2018-12-30T04:50:17.023Z,18.20
2018-12-30T04:52:46.433Z,18.83
2018-12-30T04:55:14.136Z,17.97
2018-12-30T04:57:41.838Z,18.93
2018-12-30T05:00:09.513Z,20.50
2018-12-30T05:02:37.175Z,19.43
2018-12-30T05:05:10.250Z,23.03
2018-12-30T05:07:37.990Z,22.93
2018-12-30T05:12:32.396Z,25.83
2018-12-30T05:15:00.367Z,28.40
2018-12-30T05:17:28.449Z,27.90
2018-12-30T05:19:56.603Z,31.70
2018-12-30T05:22:34.014Z,28.80
2018-12-30T05:25:01.967Z,27.23
2018-12-30T05:27:29.852Z,24.87
2018-12-30T05:29:57.522Z,23.10
2018-12-30T05:32:25.195Z,20.93
2018-12-30T05:34:52.970Z,18.23
2018-12-30T05:37:40.356Z,22.37
2018-12-30T05:40:08.271Z,23.57
2018-12-30T05:42:36.294Z,22.30
2018-12-30T05:45:04.518Z,25.27
2018-12-30T05:47:32.973Z,23.60
2018-12-30T05:50:00.741Z,25.10
2018-12-30T05:52:28.783Z,25.73
2018-12-30T05:54:56.784Z,27.00
2018-12-30T05:57:24.720Z,27.63
2018-12-30T05:59:53.095Z,27.90
2018-12-30T06:02:21.063Z,28.10
2018-12-30T06:04:48.913Z,24.57
2018-12-30T06:07:16.980Z,23.50
2018-12-30T06:09:45.198Z,24.63
2018-12-30T06:12:13.049Z,25.80
2018-12-30T06:14:41.007Z,26.83
2018-12-30T06:17:08.873Z,26.77
2018-12-30T06:19:36.712Z,34.97
2018-12-30T06:22:04.590Z,30.93
2018-12-30T06:24:32.469Z,32.50
2018-12-30T06:27:00.411Z,29.20
2018-12-30T06:29:28.613Z,26.03
2018-12-30T06:31:57.011Z,22.20
2018-12-30T06:34:25.328Z,22.67
2018-12-30T06:36:53.119Z,23.90
2018-12-30T06:39:20.874Z,23.33
2018-12-30T06:41:48.567Z,27.33
2018-12-30T06:44:16.305Z,28.87
2018-12-30T06:46:43.958Z,29.00
2018-12-30T06:49:13.197Z,31.23
2018-12-30T06:51:40.881Z,31.67
2018-12-30T06:54:08.581Z,38.40
2018-12-30T06:56:36.677Z,35.73
2018-12-30T06:59:04.431Z,36.73
2018-12-30T07:01:32.078Z,38.23
2018-12-30T07:04:00.269Z,41.77
2018-12-30T07:06:28.279Z,37.83
2018-12-30T07:08:56.738Z,41.90
2018-12-30T07:11:24.727Z,39.67
2018-12-30T07:13:52.870Z,42.03
2018-12-30T07:16:20.965Z,42.20
2018-12-30T07:18:48.677Z,43.00
2018-12-30T07:21:16.685Z,40.77
2018-12-30T07:23:44.662Z,37.63
2018-12-30T07:26:12.536Z,37.90
2018-12-30T07:28:40.603Z,37.60
2018-12-30T07:31:08.411Z,37.03
2018-12-30T07:33:36.424Z,40.47
2018-12-30T07:36:04.405Z,46.00
2018-12-30T07:38:32.101Z,48.30
2018-12-30T07:40:59.901Z,50.93
2018-12-30T07:43:28.274Z,52.17
2018-12-30T07:45:55.952Z,58.10
2018-12-30T07:48:24.212Z,56.13
2018-12-30T07:50:51.933Z,54.43
2018-12-30T07:53:19.703Z,54.03
2018-12-30T07:55:50.000Z,56.17
2018-12-30T07:58:18.069Z,54.00
2018-12-30T08:00:45.996Z,54.30
2018-12-30T08:03:13.705Z,53.83
2018-12-30T08:05:41.701Z,53.37
2018-12-30T08:08:09.456Z,55.17
2018-12-30T08:10:37.172Z,57.23
2018-12-30T08:13:05.475Z,56.63
2018-12-30T08:15:33.114Z,54.80
2018-12-30T08:18:00.774Z,54.00
2018-12-30T08:20:28.388Z,53.27
2018-12-30T08:22:56.029Z,51.80
2018-12-30T08:25:27.063Z,51.53
2018-12-30T08:28:00.810Z,49.07
2018-12-30T08:30:29.161Z,47.27
2018-12-30T08:32:57.706Z,45.03
2018-12-30T08:38:16.506Z,44.73
2018-12-30T08:40:45.650Z,43.03
2018-12-30T08:43:14.114Z,43.30
2018-12-30T08:45:41.831Z,41.47
2018-12-30T08:48:09.531Z,40.23
2018-12-30T08:50:37.315Z,38.73
2018-12-30T08:53:06.372Z,38.37
2018-12-30T08:55:34.052Z,34.63
2018-12-30T08:58:01.843Z,32.57
2018-12-30T09:00:29.805Z,33.37
2018-12-30T09:02:57.774Z,30.70
2018-12-30T09:05:25.485Z,29.30
2018-12-30T09:07:53.149Z,29.63
2018-12-30T09:10:20.913Z,26.60
2018-12-30T09:12:48.567Z,27.20
2018-12-30T09:15:16.384Z,26.43
2018-12-30T09:17:44.352Z,25.83
2018-12-30T09:20:12.299Z,25.03
2018-12-30T09:22:40.665Z,23.50
2018-12-30T09:25:08.338Z,23.77
2018-12-30T09:27:35.974Z,22.97
2018-12-30T09:30:04.277Z,20.30
2018-12-30T09:32:32.045Z,21.33
2018-12-30T09:35:00.150Z,20.60
2018-12-30T09:37:27.867Z,21.73
2018-12-30T09:39:55.846Z,20.50
2018-12-30T09:42:23.975Z,21.10
2018-12-30T09:45:06.238Z,19.77
2018-12-30T09:47:34.055Z,22.27
2018-12-30T09:50:02.266Z,21.90
2018-12-30T09:52:30.462Z,22.57
2018-12-30T09:54:58.445Z,21.53
2018-12-30T09:57:26.247Z,22.07
2018-12-30T09:59:54.648Z,22.53
2018-12-30T10:02:23.713Z,21.17
2018-12-30T10:04:51.431Z,21.47
2018-12-30T10:07:19.463Z,21.60
2018-12-30T10:09:47.452Z,21.20
2018-12-30T10:12:16.740Z,19.77
2018-12-30T10:14:44.549Z,19.10
2018-12-30T10:17:12.447Z,19.40
2018-12-30T10:19:41.037Z,19.03
2018-12-30T10:22:08.672Z,18.43
2018-12-30T10:24:36.557Z,18.37
2018-12-30T10:27:04.473Z,18.30
2018-12-30T10:29:32.439Z,15.43
2018-12-30T10:32:00.269Z,15.33
2018-12-30T10:34:28.222Z,15.07
2018-12-30T10:36:55.948Z,14.83
2018-12-30T10:39:23.644Z,13.03
2018-12-30T10:41:51.949Z,12.50
2018-12-30T10:44:20.019Z,11.53
2018-12-30T10:46:47.715Z,12.67
2018-12-30T10:49:15.444Z,12.37
2018-12-30T10:51:43.284Z,12.03
2018-12-30T10:54:11.667Z,10.87
2018-12-30T10:56:40.111Z,11.50
2018-12-30T10:59:07.825Z,13.37
2018-12-30T11:01:35.712Z,11.53
2018-12-30T11:04:03.852Z,13.67
2018-12-30T11:06:31.659Z,14.00
2018-12-30T11:08:59.475Z,13.10
2018-12-30T11:11:27.644Z,13.63
2018-12-30T11:13:56.085Z,13.00
2018-12-30T11:16:24.968Z,14.17
2018-12-30T11:18:53.428Z,13.37
2018-12-30T11:21:21.341Z,17.37
2018-12-30T11:23:49.066Z,14.43
2018-12-30T11:26:16.726Z,12.20
2018-12-30T11:28:45.115Z,13.57
2018-12-30T11:31:13.862Z,11.73
2018-12-30T11:33:41.913Z,11.77
2018-12-30T11:36:11.315Z,10.87
2018-12-30T11:38:39.085Z,12.77
2018-12-30T11:41:08.169Z,11.17
2018-12-30T11:43:35.839Z,12.27
2018-12-30T11:46:03.993Z,14.10
2018-12-30T11:48:31.975Z,13.97
2018-12-30T11:50:59.971Z,11.70
2018-12-30T11:53:27.833Z,11.97
2018-12-30T11:55:55.554Z,12.03
2018-12-30T11:58:23.297Z,11.53
2018-12-30T12:00:51.036Z,11.20
2018-12-30T12:03:19.088Z,12.50
2018-12-30T12:05:47.017Z,11.60
2018-12-30T12:08:15.153Z,12.07
2018-12-30T12:10:44.559Z,12.03
2018-12-30T12:13:12.243Z,11.40
2018-12-30T12:15:39.960Z,11.50
2018-12-30T12:18:07.798Z,10.90
2018-12-30T12:20:35.868Z,10.97
2018-12-30T12:23:03.871Z,11.03
2018-12-30T12:25:31.613Z,11.60
2018-12-30T12:27:59.367Z,12.50
2018-12-30T12:30:27.453Z,11.33
2018-12-30T12:32:55.405Z,10.60
2018-12-30T12:35:23.087Z,15.97
2018-12-30T12:37:51.156Z,12.37
2018-12-30T12:40:19.164Z,13.73
2018-12-30T12:42:47.011Z,13.20
2018-12-30T12:45:15.069Z,12.83
2018-12-30T12:47:42.840Z,13.57
2018-12-30T12:50:10.666Z,15.50
2018-12-30T12:52:38.514Z,12.80
2018-12-30T12:55:06.470Z,13.57
2018-12-30T12:57:36.733Z,14.00
2018-12-30T13:00:06.362Z,13.83
2018-12-30T13:02:34.372Z,14.30
2018-12-30T13:05:02.054Z,14.00
2018-12-30T13:07:30.170Z,14.50
2018-12-30T13:09:57.875Z,13.53
2018-12-30T13:12:25.731Z,15.07
2018-12-30T13:14:53.414Z,15.33
2018-12-30T13:17:21.356Z,13.70
2018-12-30T13:19:49.025Z,13.37
2018-12-30T13:22:16.979Z,14.57
2018-12-30T13:24:44.719Z,14.90
2018-12-30T13:27:12.894Z,20.50
2018-12-30T13:29:40.752Z,20.40
2018-12-30T13:32:08.439Z,20.80
2018-12-30T13:34:36.288Z,17.70
2018-12-30T13:37:04.353Z,24.27
2018-12-30T13:39:32.430Z,24.07
2018-12-30T13:42:00.164Z,17.63
2018-12-30T13:44:28.022Z,19.87
2018-12-30T13:46:55.815Z,15.13
2018-12-30T13:49:23.907Z,20.20
2018-12-30T13:51:53.208Z,14.60
2018-12-30T13:54:21.057Z,17.63
2018-12-30T13:56:49.285Z,16.23
2018-12-30T13:59:17.172Z,18.53
2018-12-30T14:01:45.218Z,18.60
2018-12-30T14:04:13.196Z,19.23
2018-12-30T14:06:40.907Z,20.50
2018-12-30T14:09:08.959Z,18.30
2018-12-30T14:11:37.316Z,17.90
2018-12-30T14:14:05.006Z,20.50
2018-12-30T14:16:32.741Z,18.63
2018-12-30T14:19:00.597Z,21.60
2018-12-30T14:21:28.670Z,19.00
2018-12-30T14:23:56.742Z,19.07
2018-12-30T14:26:25.140Z,21.03
2018-12-30T14:28:53.612Z,21.83
2018-12-30T14:31:21.317Z,18.00
2018-12-30T14:33:49.093Z,16.00
2018-12-30T14:36:16.986Z,17.43
2018-12-30T14:38:45.488Z,15.90
2018-12-30T14:41:13.449Z,19.37
2018-12-30T14:43:41.177Z,23.57
2018-12-30T14:46:08.943Z,23.37
2018-12-30T14:48:36.748Z,24.23
2018-12-30T14:51:04.455Z,25.90
2018-12-30T14:53:33.384Z,26.43
2018-12-30T14:56:01.369Z,31.10
2018-12-30T14:58:29.197Z,29.43
2018-12-30T15:00:57.094Z,35.03
2018-12-30T15:03:25.050Z,36.23
2018-12-30T15:05:52.754Z,36.10
2018-12-30T15:08:20.465Z,37.47
2018-12-30T15:10:48.238Z,39.93
2018-12-30T15:13:15.927Z,39.63
2018-12-30T15:15:43.620Z,39.73
2018-12-30T15:18:11.547Z,38.63
2018-12-30T15:20:39.259Z,35.07
2018-12-30T15:23:06.988Z,35.87
2018-12-30T15:25:34.749Z,31.90
2018-12-30T15:28:02.683Z,31.67
2018-12-30T15:30:31.636Z,28.50
2018-12-30T15:32:59.610Z,26.77
2018-12-30T15:35:27.324Z,21.70
2018-12-30T15:37:55.649Z,20.50
2018-12-30T15:40:23.448Z,19.90
2018-12-30T15:42:51.134Z,18.73
2018-12-30T15:45:18.900Z,16.53
2018-12-30T15:47:46.981Z,16.70
2018-12-30T15:50:15.129Z,18.17
2018-12-30T15:52:43.127Z,17.60
2018-12-30T15:55:10.898Z,13.57
2018-12-30T15:57:38.862Z,11.27
2018-12-30T16:00:07.321Z,11.63
2018-12-30T16:02:36.443Z,13.33
2018-12-30T16:05:04.588Z,10.47
2018-12-30T16:07:32.298Z,11.63
2018-12-30T16:09:59.982Z,10.93
2018-12-30T16:12:27.703Z,10.60
2018-12-30T16:14:55.621Z,11.07
2018-12-30T16:17:23.460Z,13.53
2018-12-30T16:19:51.484Z,11.20
2018-12-30T16:22:19.394Z,11.03
2018-12-30T16:24:47.494Z,12.60
2018-12-30T16:27:15.715Z,13.27
2018-12-30T16:29:43.485Z,12.83
2018-12-30T16:32:11.331Z,13.43
2018-12-30T16:34:58.559Z,12.87
2018-12-30T16:37:26.389Z,12.90
2018-12-30T16:39:54.500Z,13.87
2018-12-30T16:42:23.273Z,12.90
2018-12-30T16:44:51.288Z,14.03
2018-12-30T16:47:19.001Z,14.30
2018-12-30T16:49:46.973Z,16.03
2018-12-30T16:52:14.687Z,35.90
2018-12-30T16:54:42.388Z,14.27
2018-12-30T16:57:10.085Z,15.00
2018-12-30T16:59:37.784Z,14.67
2018-12-30T17:02:05.897Z,16.73
2018-12-30T17:04:33.781Z,15.83
2018-12-30T17:07:01.689Z,18.17
2018-12-30T17:09:29.537Z,20.73
2018-12-30T17:11:57.221Z,20.00
2018-12-30T17:14:25.238Z,19.33
2018-12-30T17:16:53.278Z,18.40
2018-12-30T17:19:22.293Z,20.20
2018-12-30T17:21:49.999Z,20.27
2018-12-30T17:24:17.863Z,21.57
2018-12-30T17:26:45.744Z,22.43
2018-12-30T17:29:14.378Z,22.50
2018-12-30T17:31:42.068Z,26.00
2018-12-30T17:34:09.895Z,25.90
2018-12-30T17:36:38.135Z,24.63
2018-12-30T17:39:06.127Z,22.97
2018-12-30T17:41:34.000Z,25.77
2018-12-30T17:44:01.671Z,25.50
2018-12-30T17:46:29.661Z,25.33
2018-12-30T17:48:57.352Z,25.47
2018-12-30T17:51:25.124Z,26.10
2018-12-30T17:53:53.394Z,25.13
2018-12-30T17:56:21.187Z,24.70
2018-12-30T17:58:48.994Z,25.30
2018-12-30T18:01:16.836Z,26.37
2018-12-30T18:03:44.776Z,25.63
2018-12-30T18:06:12.422Z,25.47
2018-12-30T18:08:40.599Z,26.60
2018-12-30T18:11:08.325Z,27.47
2018-12-30T18:13:36.117Z,25.90
2018-12-30T18:16:04.293Z,27.73
2018-12-30T18:18:31.992Z,25.87
2018-12-30T18:20:59.850Z,27.37
2018-12-30T18:23:27.748Z,25.13
2018-12-30T18:25:58.706Z,25.20
2018-12-30T18:28:26.783Z,25.87
2018-12-30T18:31:12.568Z,24.70
2018-12-30T18:33:41.887Z,28.93
2018-12-30T18:36:09.628Z,23.57
2018-12-30T18:38:37.620Z,26.60
2018-12-30T18:41:05.696Z,24.17
2018-12-30T18:43:33.403Z,26.23
2018-12-30T18:46:19.525Z,25.73
2018-12-30T18:48:47.589Z,25.40
2018-12-30T18:51:15.402Z,25.90
2018-12-30T18:53:43.532Z,25.63
2018-12-30T18:56:29.332Z,26.80
2018-12-30T18:58:57.445Z,26.50
2018-12-30T19:01:25.498Z,28.93
2018-12-30T19:04:12.434Z,29.80
2018-12-30T19:06:40.109Z,26.03
2018-12-30T19:09:07.918Z,25.87
2018-12-30T19:11:35.590Z,30.00
2018-12-30T19:14:21.845Z,28.47
2018-12-30T19:17:07.841Z,27.80
2018-12-30T19:19:35.839Z,27.57
2018-12-30T19:22:03.532Z,28.50
2018-12-30T19:24:31.870Z,32.23
2018-12-30T19:27:18.047Z,29.23
2018-12-30T19:29:46.109Z,27.30
2018-12-30T19:32:50.354Z,26.03
2018-12-30T19:35:18.896Z,26.80
2018-12-30T19:37:48.132Z,26.67
2018-12-30T19:40:16.245Z,28.20
2018-12-30T19:42:44.350Z,31.53
2018-12-30T19:45:30.703Z,37.83
2018-12-30T19:47:58.759Z,30.57
2018-12-30T19:50:26.768Z,40.73
2018-12-30T19:52:54.829Z,86.27
2018-12-30T19:55:23.108Z,47.83
2018-12-30T19:57:51.195Z,48.13
2018-12-30T20:00:19.377Z,38.47
2018-12-30T20:02:47.532Z,42.60
2018-12-30T20:05:15.553Z,52.67
2018-12-30T20:07:43.672Z,41.13
2018-12-30T20:10:11.772Z,39.23
2018-12-30T20:12:40.206Z,37.67
2018-12-30T20:15:08.480Z,39.87
2018-12-30T20:17:36.694Z,41.97
2018-12-30T20:20:05.561Z,38.13
2018-12-30T20:22:33.919Z,43.00
2018-12-30T20:25:02.322Z,41.27
2018-12-30T20:27:30.738Z,51.27
2018-12-30T20:29:59.089Z,49.43
2018-12-30T20:32:27.270Z,50.67
2018-12-30T20:34:55.822Z,45.50
2018-12-30T20:37:23.844Z,38.57
2018-12-30T20:39:51.879Z,47.50
2018-12-30T20:42:20.072Z,39.07
2018-12-30T20:44:48.458Z,36.77
2018-12-30T20:47:16.885Z,38.70
2018-12-30T20:49:45.305Z,42.60
2018-12-30T20:52:13.397Z,36.47
2018-12-30T20:54:44.422Z,34.30
2018-12-30T20:57:12.357Z,38.13
2018-12-30T20:59:40.386Z,32.70
2018-12-30T21:02:08.418Z,36.30
2018-12-30T21:04:36.574Z,38.87
2018-12-30T21:07:04.628Z,33.87
2018-12-30T21:09:32.418Z,33.40
2018-12-30T21:12:00.260Z,35.47
2018-12-30T21:14:28.386Z,33.43
2018-12-30T21:16:56.149Z,29.97
2018-12-30T21:19:23.813Z,32.57
2018-12-30T21:21:52.210Z,34.43
2018-12-30T21:24:19.906Z,33.97
2018-12-30T21:26:47.662Z,32.07
2018-12-30T21:29:16.376Z,32.67
2018-12-30T21:31:44.217Z,29.00
2018-12-30T21:34:11.971Z,29.40
2018-12-30T21:36:39.700Z,27.67
2018-12-30T21:39:08.730Z,27.23
2018-12-30T21:41:36.366Z,39.93
2018-12-30T21:44:04.141Z,26.67
2018-12-30T21:46:31.802Z,25.93
2018-12-30T21:48:59.664Z,24.97
2018-12-30T21:51:28.134Z,23.20
2018-12-30T21:53:55.858Z,23.93
2018-12-30T21:56:23.584Z,24.67
2018-12-30T21:58:51.296Z,20.77
2018-12-30T22:01:19.045Z,23.03
2018-12-30T22:03:46.982Z,22.93
2018-12-30T22:06:14.746Z,21.87
2018-12-30T22:08:42.417Z,22.10
2018-12-30T22:11:10.082Z,19.67
2018-12-30T22:13:37.894Z,20.50
2018-12-30T22:16:06.084Z,21.67
2018-12-30T22:18:34.235Z,22.17
2018-12-30T22:21:03.058Z,21.67
2018-12-30T22:23:31.428Z,22.17
2018-12-30T22:25:59.622Z,21.67
2018-12-30T22:28:28.309Z,21.67
2018-12-30T22:30:56.493Z,23.10
2018-12-30T22:33:24.712Z,21.83
2018-12-30T22:35:52.825Z,21.97
2018-12-30T22:38:21.289Z,20.93
2018-12-30T22:40:50.853Z,21.10
2018-12-30T22:43:18.562Z,21.43
2018-12-30T22:45:46.853Z,21.43
2018-12-30T22:48:14.523Z,22.13
2018-12-30T22:50:42.274Z,22.13
2018-12-30T22:53:09.941Z,22.63
2018-12-30T22:55:38.091Z,23.53
2018-12-30T22:58:05.773Z,23.60
2018-12-30T23:01:11.366Z,22.00
2018-12-30T23:03:41.024Z,22.57
2018-12-30T23:06:08.816Z,23.77
2018-12-30T23:08:36.593Z,23.63
2018-12-30T23:11:04.271Z,24.30
2018-12-30T23:13:32.664Z,23.70
2018-12-30T23:16:00.326Z,25.00
2018-12-30T23:18:28.044Z,24.93
2018-12-30T23:20:55.731Z,23.77
2018-12-30T23:23:23.461Z,24.80
2018-12-30T23:25:51.372Z,25.73
2018-12-30T23:28:19.102Z,25.20
2018-12-30T23:30:47.062Z,25.20
2018-12-30T23:33:14.836Z,28.00
2018-12-30T23:35:42.474Z,25.93
2018-12-30T23:38:10.178Z,22.97
2018-12-30T23:40:37.877Z,25.20
2018-12-30T23:43:05.578Z,24.93
2018-12-30T23:45:33.253Z,25.33
2018-12-30T23:48:01.018Z,26.50
2018-12-30T23:50:28.676Z,25.83
2018-12-30T23:52:56.414Z,25.03
2018-12-30T23:55:25.371Z,25.23
2018-12-30T23:57:53.111Z,24.03
